createdAt,value
2017-10-19T00:00:44.789Z,100038
2017-10-19T00:01:44.770Z,100039
2017-10-19T00:02:44.795Z,100041
2017-10-19T00:03:44.892Z,100042
2017-10-19T00:04:44.938Z,100043
2017-10-19T00:05:45.317Z,100043
2017-10-19T00:06:44.974Z,100041
2017-10-19T00:07:45.059Z,100034
2017-10-19T00:08:45.001Z,100037
2017-10-19T00:09:45.089Z,100040
2017-10-19T00:10:45.112Z,100036
2017-10-19T00:11:45.491Z,100038
2017-10-19T00:12:45.261Z,100036
2017-10-19T00:13:45.301Z,100042
2017-10-19T00:14:45.276Z,100037
2017-10-19T00:15:45.433Z,100040
2017-10-19T00:16:45.459Z,100039
2017-10-19T00:17:45.756Z,100037
2017-10-19T00:18:45.602Z,100040
2017-10-19T00:19:45.536Z,100036
2017-10-19T00:20:45.579Z,100039
2017-10-19T00:21:45.719Z,100037
2017-10-19T00:22:45.853Z,100042
2017-10-19T00:23:46.092Z,100041
2017-10-19T00:24:45.809Z,100040
2017-10-19T00:25:45.962Z,100040
2017-10-19T00:26:45.909Z,100045
2017-10-19T00:27:45.975Z,100049
2017-10-19T00:28:45.929Z,100053
2017-10-19T00:29:46.284Z,100049
2017-10-19T00:30:45.948Z,100051
2017-10-19T00:31:45.973Z,100053
2017-10-19T00:32:46.077Z,100055
2017-10-19T00:33:46.127Z,100055
2017-10-19T00:34:46.192Z,100056
2017-10-19T00:35:46.615Z,100062
2017-10-19T00:36:46.285Z,100064
2017-10-19T00:37:46.289Z,100056
2017-10-19T00:38:46.379Z,100061
2017-10-19T00:39:46.477Z,100061
2017-10-19T00:40:46.490Z,100063
2017-10-19T00:41:46.777Z,100060
2017-10-19T00:42:46.581Z,100060
2017-10-19T00:43:46.572Z,100063
2017-10-19T00:44:46.633Z,100057
2017-10-19T00:45:46.731Z,100052
2017-10-19T00:46:46.763Z,100061
2017-10-19T00:47:47.133Z,100058
2017-10-19T00:48:46.983Z,100058
2017-10-19T00:49:46.962Z,100057
2017-10-19T00:50:46.990Z,100057
2017-10-19T00:51:47.049Z,100055
2017-10-19T00:52:47.101Z,100049
2017-10-19T00:53:47.490Z,100047
2017-10-19T00:54:47.203Z,100049
2017-10-19T00:55:47.264Z,100048
2017-10-19T00:56:47.402Z,100041
2017-10-19T00:57:47.480Z,100043
2017-10-19T00:58:47.523Z,100042
2017-10-19T00:59:47.887Z,100044
2017-10-19T01:00:48.028Z,100045
2017-10-19T01:01:47.713Z,100039
2017-10-19T01:02:47.804Z,100037
2017-10-19T01:03:47.811Z,100040
2017-10-19T01:04:47.970Z,100036
2017-10-19T01:05:48.195Z,100036
2017-10-19T01:06:48.075Z,100036
2017-10-19T01:07:48.124Z,100031
2017-10-19T01:08:48.123Z,100031
2017-10-19T01:09:48.207Z,100034
2017-10-19T01:10:48.342Z,100032
2017-10-19T01:11:48.638Z,100036
2017-10-19T01:12:48.358Z,100030
2017-10-19T01:13:48.360Z,100029
2017-10-19T01:14:48.383Z,100031
2017-10-19T01:15:48.438Z,100026
2017-10-19T01:16:48.484Z,100028
2017-10-19T01:17:49.007Z,100030
2017-10-19T01:18:48.651Z,100030
2017-10-19T01:19:48.658Z,100031
2017-10-19T01:20:48.754Z,100026
2017-10-19T01:21:48.894Z,100023
2017-10-19T01:22:48.967Z,100025
2017-10-19T01:23:49.247Z,100027
2017-10-19T01:24:49.012Z,100020
2017-10-19T01:25:49.032Z,100022
2017-10-19T01:26:49.026Z,100027
2017-10-19T01:27:49.151Z,100026
2017-10-19T01:28:49.159Z,100030
2017-10-19T01:29:49.490Z,100028
2017-10-19T01:30:49.321Z,100035
2017-10-19T01:31:49.412Z,100034
2017-10-19T01:32:49.432Z,100034
2017-10-19T01:33:49.436Z,100035
2017-10-19T01:34:49.421Z,100031
2017-10-19T01:35:49.783Z,100030
2017-10-19T01:36:49.502Z,100035
2017-10-19T01:37:49.541Z,100030
2017-10-19T01:38:49.589Z,100029
2017-10-19T01:39:49.595Z,100023
2017-10-19T01:40:49.581Z,100023
2017-10-19T01:41:49.953Z,100022
2017-10-19T01:42:49.632Z,100019
2017-10-19T01:43:49.709Z,100022
2017-10-19T01:44:49.829Z,100017
2017-10-19T01:45:49.782Z,100016
2017-10-19T01:46:49.863Z,100017
2017-10-19T01:47:50.205Z,100019
2017-10-19T01:48:49.882Z,100016
2017-10-19T01:49:49.964Z,100013
2017-10-19T01:50:50.105Z,100013
2017-10-19T01:51:50.164Z,100011
2017-10-19T01:52:50.248Z,100007
2017-10-19T01:53:50.588Z,100013
2017-10-19T01:54:50.346Z,100009
2017-10-19T01:55:50.481Z,100016
2017-10-19T01:56:50.490Z,100013
2017-10-19T01:57:50.579Z,100015
2017-10-19T01:58:50.641Z,100013
2017-10-19T01:59:50.894Z,100014
2017-10-19T02:00:50.672Z,100012
2017-10-19T02:01:50.740Z,100010
2017-10-19T02:02:50.726Z,100010
2017-10-19T02:03:50.836Z,100006
2017-10-19T02:04:50.894Z,100012
2017-10-19T02:05:51.194Z,100008
2017-10-19T02:07:51.020Z,100010
2017-10-19T02:08:51.063Z,100011
2017-10-19T02:09:51.059Z,100009
2017-10-19T02:10:51.115Z,100015
2017-10-19T02:11:52.333Z,100011
2017-10-19T02:12:51.198Z,100013
2017-10-19T02:13:51.207Z,100017
2017-10-19T02:14:51.347Z,100019
2017-10-19T02:15:51.420Z,100012
2017-10-19T02:16:51.442Z,100015
2017-10-19T02:17:51.711Z,100017
2017-10-19T02:18:51.513Z,100012
2017-10-19T02:19:51.654Z,100012
2017-10-19T02:20:51.664Z,100009
2017-10-19T02:21:51.680Z,100013
2017-10-19T02:22:51.836Z,100012
2017-10-19T02:23:52.178Z,100011
2017-10-19T02:24:51.954Z,100009
2017-10-19T02:25:51.958Z,100010
2017-10-19T02:26:52.066Z,100011
2017-10-19T02:27:52.114Z,100011
2017-10-19T02:28:52.120Z,100009
2017-10-19T02:29:52.506Z,100006
2017-10-19T02:30:52.253Z,100009
2017-10-19T02:31:52.299Z,100010
2017-10-19T02:32:52.313Z,100006
2017-10-19T02:33:52.372Z,100005
2017-10-19T02:34:52.397Z,100010
2017-10-19T02:35:52.758Z,100012
2017-10-19T02:36:52.601Z,100009
2017-10-19T02:37:52.613Z,100009
2017-10-19T02:38:52.665Z,100011
2017-10-19T02:39:52.676Z,100013
2017-10-19T02:40:52.819Z,100011
2017-10-19T02:41:53.087Z,100011
2017-10-19T02:42:52.905Z,100010
2017-10-19T02:43:52.925Z,100006
2017-10-19T02:44:53.014Z,100009
2017-10-19T02:45:53.099Z,100007
2017-10-19T02:46:53.107Z,100011
2017-10-19T02:47:53.180Z,100009
2017-10-19T02:48:53.203Z,100010
2017-10-19T02:49:53.352Z,100009
2017-10-19T02:50:53.392Z,100012
2017-10-19T02:51:53.357Z,100011
2017-10-19T02:52:53.505Z,100011
2017-10-19T02:53:53.435Z,100012
2017-10-19T02:54:53.550Z,100010
2017-10-19T02:55:53.523Z,100008
2017-10-19T02:56:53.550Z,100007
2017-10-19T02:57:53.692Z,100007
2017-10-19T02:58:53.688Z,100009
2017-10-19T02:59:53.745Z,100009
2017-10-19T03:00:53.738Z,100007
2017-10-19T03:01:53.841Z,100003
2017-10-19T03:02:53.917Z,100000
2017-10-19T03:03:53.924Z,99999
2017-10-19T03:04:54.014Z,100002
2017-10-19T03:05:53.990Z,100007
2017-10-19T03:06:54.027Z,100005
2017-10-19T03:07:54.116Z,100004
2017-10-19T03:08:54.126Z,100002
2017-10-19T03:09:54.120Z,100005
2017-10-19T03:10:54.235Z,100000
2017-10-19T03:11:54.315Z,100001
2017-10-19T03:12:54.250Z,100000
2017-10-19T03:13:54.250Z,99999
2017-10-19T03:14:54.322Z,99997
2017-10-19T03:15:54.379Z,100000
2017-10-19T03:16:54.466Z,99995
2017-10-19T03:17:54.535Z,99995
2017-10-19T03:18:54.601Z,99997
2017-10-19T03:19:54.562Z,99994
2017-10-19T03:20:54.675Z,99993
2017-10-19T03:21:54.761Z,99993
2017-10-19T03:22:54.756Z,99994
2017-10-19T03:23:54.878Z,99992
2017-10-19T03:24:54.938Z,99989
2017-10-19T03:25:54.944Z,99993
2017-10-19T03:26:55.029Z,99989
2017-10-19T03:27:54.957Z,99992
2017-10-19T03:28:54.996Z,99991
2017-10-19T03:29:55.064Z,99990
2017-10-19T03:30:55.127Z,99986
2017-10-19T03:31:55.182Z,99986
2017-10-19T03:32:55.318Z,99989
2017-10-19T03:33:55.350Z,99988
2017-10-19T03:34:55.434Z,99986
2017-10-19T03:35:55.396Z,99986
2017-10-19T03:36:55.450Z,99985
2017-10-19T03:37:55.486Z,99988
2017-10-19T03:38:55.630Z,99983
2017-10-19T03:39:55.624Z,99991
2017-10-19T03:40:55.801Z,99983
2017-10-19T03:41:55.718Z,99988
2017-10-19T03:42:55.819Z,99986
2017-10-19T03:43:55.874Z,99986
2017-10-19T03:44:55.873Z,99988
2017-10-19T03:45:56.027Z,99987
2017-10-19T03:46:56.006Z,99985
2017-10-19T03:47:56.095Z,99990
2017-10-19T03:48:56.173Z,99989
2017-10-19T03:49:56.288Z,99986
2017-10-19T03:50:56.313Z,99990
2017-10-19T03:51:56.382Z,99989
2017-10-19T03:52:56.470Z,99983
2017-10-19T03:53:56.569Z,99986
2017-10-19T03:54:56.575Z,99983
2017-10-19T03:55:56.624Z,99981
2017-10-19T03:56:56.765Z,99984
2017-10-19T03:57:56.697Z,99978
2017-10-19T03:58:56.705Z,99981
2017-10-19T03:59:56.749Z,99978
2017-10-19T04:00:56.830Z,99977
2017-10-19T04:01:56.859Z,99977
2017-10-19T04:02:56.884Z,99973
2017-10-19T04:03:56.892Z,99977
2017-10-19T04:04:56.979Z,99973
2017-10-19T04:05:57.019Z,99968
2017-10-19T04:06:57.132Z,99969
2017-10-19T04:07:57.011Z,99972
2017-10-19T04:08:57.065Z,99970
2017-10-19T04:09:57.104Z,99972
2017-10-19T04:10:57.181Z,99969
2017-10-19T04:11:57.180Z,99970
2017-10-19T04:12:57.204Z,99965
2017-10-19T04:13:57.299Z,99972
2017-10-19T04:14:57.289Z,99977
2017-10-19T04:15:57.383Z,99974
2017-10-19T04:16:57.481Z,99977
2017-10-19T04:17:57.496Z,99977
2017-10-19T04:18:57.586Z,99978
2017-10-19T04:19:57.673Z,99979
2017-10-19T04:20:57.708Z,99977
2017-10-19T04:21:57.680Z,99977
2017-10-19T04:22:57.700Z,99978
2017-10-19T04:23:57.739Z,99977
2017-10-19T04:24:57.857Z,99976
2017-10-19T04:25:57.899Z,99970
2017-10-19T04:26:57.868Z,99971
2017-10-19T04:27:57.946Z,99971
2017-10-19T04:28:58.100Z,99972
2017-10-19T04:29:58.148Z,99969
2017-10-19T04:30:58.169Z,99973
2017-10-19T04:31:58.245Z,99974
2017-10-19T04:32:58.223Z,99965
2017-10-19T04:33:58.331Z,99969
2017-10-19T04:34:58.412Z,99965
2017-10-19T04:35:58.412Z,99970
2017-10-19T04:36:58.517Z,99975
2017-10-19T04:37:58.437Z,99977
2017-10-19T04:38:58.471Z,99977
2017-10-19T04:39:58.607Z,99978
2017-10-19T04:40:58.607Z,99975
2017-10-19T04:41:58.614Z,99974
2017-10-19T04:42:58.594Z,99974
2017-10-19T04:43:58.750Z,99974
2017-10-19T04:44:58.708Z,99976
2017-10-19T04:45:58.891Z,99978
2017-10-19T04:46:58.799Z,99976
2017-10-19T04:47:58.873Z,99976
2017-10-19T04:48:58.868Z,99977
2017-10-19T04:49:58.867Z,99978
2017-10-19T04:50:59.006Z,99969
2017-10-19T04:51:59.094Z,99975
2017-10-19T04:52:59.081Z,99968
2017-10-19T04:53:59.110Z,99973
2017-10-19T04:54:59.173Z,99967
2017-10-19T04:55:59.180Z,99979
2017-10-19T04:56:59.197Z,99968
2017-10-19T04:57:59.281Z,99976
2017-10-19T04:58:59.370Z,99973
2017-10-19T04:59:59.464Z,99976
2017-10-19T05:00:59.516Z,99976
2017-10-19T05:01:59.509Z,99971
2017-10-19T05:02:59.637Z,99976
2017-10-19T05:03:59.605Z,99975
2017-10-19T05:04:59.703Z,99974
2017-10-19T05:05:59.715Z,99972
2017-10-19T05:06:59.748Z,99974
2017-10-19T05:07:59.894Z,99978
2017-10-19T05:08:59.917Z,99977
2017-10-19T05:09:59.969Z,99975
2017-10-19T05:10:59.967Z,99982
2017-10-19T05:11:59.909Z,99982
2017-10-19T05:12:59.993Z,99983
2017-10-19T05:14:00.120Z,99981
2017-10-19T05:15:00.131Z,99983
2017-10-19T05:16:00.282Z,99976
2017-10-19T05:17:00.165Z,99979
2017-10-19T05:18:00.446Z,99978
2017-10-19T05:19:00.458Z,99978
2017-10-19T05:20:00.547Z,99978
2017-10-19T05:21:00.614Z,99978
2017-10-19T05:22:00.560Z,99973
2017-10-19T05:23:00.606Z,99971
2017-10-19T05:24:00.720Z,99971
2017-10-19T05:25:00.708Z,99965
2017-10-19T05:26:00.861Z,99967
2017-10-19T05:27:00.908Z,99966
2017-10-19T05:28:01.029Z,99961
2017-10-19T05:29:01.021Z,99964
2017-10-19T05:30:01.003Z,99961
2017-10-19T05:31:01.083Z,99959
2017-10-19T05:32:01.228Z,99954
2017-10-19T05:33:01.223Z,99962
2017-10-19T05:34:01.319Z,99960
2017-10-19T05:35:01.335Z,99959
2017-10-19T05:36:01.507Z,99953
2017-10-19T05:37:01.524Z,99955
2017-10-19T05:38:01.497Z,99957
2017-10-19T05:39:01.516Z,99957
2017-10-19T05:40:01.607Z,99956
2017-10-19T05:41:01.629Z,99964
2017-10-19T05:42:01.708Z,99961
2017-10-19T05:43:01.790Z,99966
2017-10-19T05:44:01.860Z,99961
2017-10-19T05:45:01.905Z,99962
2017-10-19T05:46:01.991Z,99962
2017-10-19T05:47:02.035Z,99962
2017-10-19T05:48:02.144Z,99957
2017-10-19T05:49:02.180Z,99956
2017-10-19T05:50:02.176Z,99952
2017-10-19T05:51:02.197Z,99955
2017-10-19T05:52:02.376Z,99954
2017-10-19T05:53:02.279Z,99948
2017-10-19T05:54:02.365Z,99956
2017-10-19T05:55:02.467Z,99959
2017-10-19T05:56:02.523Z,99955
2017-10-19T05:57:02.542Z,99958
2017-10-19T05:58:02.624Z,99964
2017-10-19T05:59:02.610Z,99965
2017-10-19T06:00:02.720Z,99964
2017-10-19T06:01:02.695Z,99965
2017-10-19T06:02:02.718Z,99965
2017-10-19T06:03:02.825Z,99961
2017-10-19T06:04:02.943Z,99958
2017-10-19T06:05:03.023Z,99964
2017-10-19T06:06:03.092Z,99961
2017-10-19T06:07:03.103Z,99966
2017-10-19T06:08:03.127Z,99962
2017-10-19T06:09:03.146Z,99964
2017-10-19T06:10:03.268Z,99967
2017-10-19T06:11:03.312Z,99960
2017-10-19T06:12:03.526Z,99964
2017-10-19T06:13:03.397Z,99968
2017-10-19T06:14:03.480Z,99968
2017-10-19T06:15:03.577Z,99964
2017-10-19T06:16:03.699Z,99966
2017-10-19T06:17:03.648Z,99968
2017-10-19T06:18:03.715Z,99964
2017-10-19T06:19:03.731Z,99967
2017-10-19T06:20:03.805Z,99969
2017-10-19T06:21:03.860Z,99969
2017-10-19T06:22:03.869Z,99965
2017-10-19T06:23:03.918Z,99965
2017-10-19T06:24:04.033Z,99968
2017-10-19T06:25:04.043Z,99963
2017-10-19T06:26:04.096Z,99964
2017-10-19T06:27:04.166Z,99957
2017-10-19T06:28:04.326Z,99963
2017-10-19T06:29:04.390Z,99963
2017-10-19T06:30:04.361Z,99962
2017-10-19T06:31:04.366Z,99959
2017-10-19T06:32:04.429Z,99963
2017-10-19T06:33:04.575Z,99964
2017-10-19T06:34:04.702Z,99967
2017-10-19T06:35:04.621Z,99965
2017-10-19T06:36:04.669Z,99969
2017-10-19T06:37:04.709Z,99969
2017-10-19T06:38:04.681Z,99972
2017-10-19T06:39:04.791Z,99975
2017-10-19T06:40:04.828Z,99978
2017-10-19T06:41:04.855Z,99979
2017-10-19T06:42:04.887Z,99979
2017-10-19T06:43:04.932Z,99985
2017-10-19T06:44:05.597Z,99980
2017-10-19T06:45:05.000Z,99988
2017-10-19T06:46:05.131Z,99986
2017-10-19T06:47:04.996Z,99982
2017-10-19T06:48:05.416Z,99987
2017-10-19T06:49:05.244Z,99985
2017-10-19T06:50:05.180Z,99984
2017-10-19T06:51:05.346Z,99985
2017-10-19T06:52:05.278Z,99987
2017-10-19T06:53:05.504Z,99985
2017-10-19T06:54:05.719Z,99988
2017-10-19T06:55:05.525Z,99991
2017-10-19T06:56:05.590Z,99990
2017-10-19T06:57:05.608Z,99989
2017-10-19T06:58:05.623Z,99985
2017-10-19T06:59:05.744Z,99983
2017-10-19T07:00:06.077Z,99986
2017-10-19T07:01:05.867Z,99983
2017-10-19T07:02:05.935Z,99982
2017-10-19T07:03:05.953Z,99983
2017-10-19T07:04:06.142Z,99986
2017-10-19T07:05:06.166Z,99984
2017-10-19T07:06:06.466Z,99987
2017-10-19T07:07:06.313Z,99992
2017-10-19T07:08:06.348Z,99987
2017-10-19T07:09:06.348Z,99988
2017-10-19T07:10:06.374Z,99988
2017-10-19T07:11:06.413Z,99979
2017-10-19T07:12:06.840Z,99985
2017-10-19T07:13:06.498Z,99983
2017-10-19T07:14:06.552Z,99985
2017-10-19T07:15:06.535Z,99984
2017-10-19T07:16:06.590Z,99980
2017-10-19T07:17:06.635Z,99986
2017-10-19T07:18:06.874Z,99983
2017-10-19T07:19:06.682Z,99983
2017-10-19T07:20:06.859Z,99981
2017-10-19T07:21:06.891Z,99978
2017-10-19T07:22:06.902Z,99980
2017-10-19T07:23:06.910Z,99980
2017-10-19T07:24:07.206Z,99976
2017-10-19T07:25:07.034Z,99978
2017-10-19T07:26:07.107Z,99977
2017-10-19T07:27:07.179Z,99977
2017-10-19T07:28:07.277Z,99972
2017-10-19T07:29:07.334Z,99974
2017-10-19T07:30:07.564Z,99971
2017-10-19T07:31:07.402Z,99976
2017-10-19T07:32:07.304Z,99971
2017-10-19T07:33:07.316Z,99974
2017-10-19T07:34:07.358Z,99967
2017-10-19T07:35:07.452Z,99973
2017-10-19T07:36:07.716Z,99973
2017-10-19T07:37:07.520Z,99966
2017-10-19T07:38:07.574Z,99972
2017-10-19T07:39:07.740Z,99975
2017-10-19T07:40:07.757Z,99974
2017-10-19T07:41:07.858Z,99973
2017-10-19T07:42:08.144Z,99979
2017-10-19T07:43:07.910Z,99973
2017-10-19T07:44:08.050Z,99975
2017-10-19T07:45:08.058Z,99973
2017-10-19T07:46:08.064Z,99979
2017-10-19T07:47:08.527Z,99975
2017-10-19T07:48:08.210Z,99975
2017-10-19T07:49:08.296Z,99975
2017-10-19T07:50:08.314Z,99975
2017-10-19T07:51:08.332Z,99978
2017-10-19T07:52:08.406Z,99977
2017-10-19T07:53:08.706Z,99979
2017-10-19T07:54:08.557Z,99977
2017-10-19T07:55:08.595Z,99982
2017-10-19T07:56:08.599Z,99979
2017-10-19T07:57:09.775Z,99982
2017-10-19T07:58:09.330Z,99980
2017-10-19T07:59:09.084Z,99978
2017-10-19T08:00:08.872Z,99953
2017-10-19T08:01:08.815Z,99980
2017-10-19T08:02:08.935Z,99976
2017-10-19T08:03:08.980Z,99971
2017-10-19T08:04:09.059Z,99974
2017-10-19T08:05:09.344Z,99973
2017-10-19T08:06:09.025Z,99973
2017-10-19T08:07:09.060Z,99973
2017-10-19T08:08:09.236Z,99970
2017-10-19T08:09:09.882Z,99973
2017-10-19T08:10:09.277Z,99975
2017-10-19T08:11:09.642Z,99974
2017-10-19T08:12:09.524Z,99972
2017-10-19T08:13:10.395Z,99976
2017-10-19T08:14:09.415Z,99975
2017-10-19T08:15:09.485Z,99978
2017-10-19T08:16:09.604Z,99973
2017-10-19T08:17:09.860Z,99976
2017-10-19T08:18:09.705Z,99978
2017-10-19T08:19:09.866Z,99974
2017-10-19T08:20:09.813Z,99980
2017-10-19T08:21:09.891Z,99982
2017-10-19T08:22:09.963Z,99983
2017-10-19T08:23:10.352Z,99986
2017-10-19T08:24:10.058Z,99983
2017-10-19T08:25:10.097Z,99985
2017-10-19T08:26:10.196Z,99979
2017-10-19T08:27:10.239Z,99984
2017-10-19T08:28:10.176Z,99984
2017-10-19T08:29:10.525Z,99987
2017-10-19T08:30:10.366Z,99982
2017-10-19T08:31:10.444Z,99981
2017-10-19T08:32:10.515Z,99980
2017-10-19T08:33:10.462Z,99983
2017-10-19T08:34:10.620Z,99982
2017-10-19T08:35:10.842Z,99984
2017-10-19T08:36:10.696Z,99985
2017-10-19T08:37:10.731Z,99983
2017-10-19T08:38:10.712Z,99981
2017-10-19T08:39:10.795Z,99982
2017-10-19T08:40:10.852Z,99985
2017-10-19T08:41:11.400Z,99982
2017-10-19T08:42:10.901Z,99983
2017-10-19T08:43:10.999Z,99987
2017-10-19T08:44:11.049Z,99990
2017-10-19T08:45:11.086Z,99987
2017-10-19T08:46:11.137Z,99989
2017-10-19T08:47:11.590Z,99991
2017-10-19T08:48:11.780Z,99994
2017-10-19T08:49:11.204Z,99994
2017-10-19T08:50:11.318Z,99994
2017-10-19T08:51:11.379Z,99993
2017-10-19T08:52:11.406Z,99996
2017-10-19T08:53:11.775Z,99995
2017-10-19T08:54:11.614Z,99997
2017-10-19T08:55:11.649Z,99999
2017-10-19T08:56:11.574Z,100001
2017-10-19T08:57:11.728Z,100003
2017-10-19T08:58:11.719Z,100002
2017-10-19T08:59:12.021Z,100004
2017-10-19T09:00:11.795Z,100005
2017-10-19T09:01:11.850Z,100009
2017-10-19T09:02:11.874Z,100002
2017-10-19T09:03:11.995Z,100005
2017-10-19T09:04:11.889Z,100006
2017-10-19T09:05:12.213Z,100006
2017-10-19T09:06:11.947Z,100009
2017-10-19T09:07:11.978Z,100007
2017-10-19T09:08:12.085Z,100007
2017-10-19T09:09:12.166Z,100014
2017-10-19T09:10:12.418Z,100008
2017-10-19T09:11:12.683Z,100004
2017-10-19T09:12:12.290Z,100008
2017-10-19T09:13:12.424Z,100002
2017-10-19T09:14:12.397Z,100002
2017-10-19T09:15:12.428Z,99997
2017-10-19T09:16:12.513Z,100002
2017-10-19T09:17:12.864Z,99997
2017-10-19T09:18:15.075Z,100001
2017-10-19T09:19:13.542Z,99996
2017-10-19T09:20:14.588Z,99996
2017-10-19T09:21:14.500Z,99999
2017-10-19T09:22:14.213Z,100003
2017-10-19T09:23:15.014Z,99997
2017-10-19T09:24:13.036Z,99996
2017-10-19T09:25:13.149Z,99999
2017-10-19T09:26:13.190Z,100000
2017-10-19T09:27:13.149Z,100003
2017-10-19T09:28:13.137Z,100006
2017-10-19T09:29:13.515Z,100000
2017-10-19T09:30:13.280Z,100003
2017-10-19T09:31:13.320Z,100003
2017-10-19T09:32:13.405Z,100003
2017-10-19T09:33:13.440Z,100005
2017-10-19T09:34:13.338Z,100000
2017-10-19T09:35:13.796Z,99998
2017-10-19T09:36:13.438Z,100000
2017-10-19T09:37:13.631Z,100001
2017-10-19T09:38:13.620Z,99994
2017-10-19T09:39:13.638Z,99995
2017-10-19T09:40:13.665Z,99987
2017-10-19T09:41:14.062Z,99992
2017-10-19T09:42:14.017Z,99989
2017-10-19T09:43:13.872Z,99989
2017-10-19T09:44:13.863Z,99987
2017-10-19T09:45:13.859Z,99988
2017-10-19T09:46:13.833Z,99988
2017-10-19T09:47:14.126Z,99992
2017-10-19T09:48:14.007Z,99989
2017-10-19T09:49:14.043Z,99987
2017-10-19T09:50:14.101Z,99984
2017-10-19T09:51:14.073Z,99986
2017-10-19T09:52:14.164Z,99987
2017-10-19T09:53:14.428Z,99986
2017-10-19T09:54:14.151Z,99985
2017-10-19T09:55:14.221Z,99985
2017-10-19T09:56:14.396Z,99990
2017-10-19T09:57:14.355Z,99981
2017-10-19T09:58:14.445Z,99979
2017-10-19T09:59:14.718Z,99981
2017-10-19T10:00:14.483Z,99976
2017-10-19T10:01:14.605Z,99974
2017-10-19T10:02:14.615Z,99974
2017-10-19T10:03:14.515Z,99975
2017-10-19T10:04:14.637Z,99973
2017-10-19T10:05:14.935Z,99970
2017-10-19T10:06:14.812Z,99971
2017-10-19T10:07:14.738Z,99969
2017-10-19T10:08:14.859Z,99968
2017-10-19T10:09:14.837Z,99968
2017-10-19T10:10:14.971Z,99965
2017-10-19T10:11:15.344Z,99969
2017-10-19T10:12:15.121Z,99968
2017-10-19T10:13:15.122Z,99964
2017-10-19T10:14:15.365Z,99965
2017-10-19T10:15:15.303Z,99963
2017-10-19T10:16:15.259Z,99962
2017-10-19T10:17:15.663Z,99956
2017-10-19T10:18:15.545Z,99957
2017-10-19T10:19:15.438Z,99957
2017-10-19T10:20:15.526Z,99957
2017-10-19T10:21:15.687Z,99957
2017-10-19T10:22:15.778Z,99955
2017-10-19T10:23:16.038Z,99958
2017-10-19T10:24:15.764Z,99961
2017-10-19T10:25:15.726Z,99957
2017-10-19T10:26:15.790Z,99954
2017-10-19T10:27:15.910Z,99960
2017-10-19T10:28:15.828Z,99953
2017-10-19T10:29:16.118Z,99955
2017-10-19T10:30:16.121Z,99954
2017-10-19T10:31:15.927Z,99952
2017-10-19T10:32:16.103Z,99947
2017-10-19T10:33:16.127Z,99946
2017-10-19T10:34:17.701Z,99944
2017-10-19T10:35:17.906Z,99946
2017-10-19T10:36:17.730Z,99948
2017-10-19T10:37:17.498Z,99952
2017-10-19T10:38:16.380Z,99948
2017-10-19T10:39:16.489Z,99943
2017-10-19T10:40:16.551Z,99946
2017-10-19T10:41:16.661Z,99942
2017-10-19T10:42:16.794Z,99941
2017-10-19T10:43:17.780Z,99940
2017-10-19T10:44:18.371Z,99939
2017-10-19T10:45:17.639Z,99937
2017-10-19T10:46:18.335Z,99938
2017-10-19T10:47:18.487Z,99934
2017-10-19T10:48:18.378Z,99931
2017-10-19T10:49:17.159Z,99931
2017-10-19T10:50:17.087Z,99924
2017-10-19T10:51:18.722Z,99925
2017-10-19T10:52:19.116Z,99926
2017-10-19T10:53:19.928Z,99927
2017-10-19T10:54:19.402Z,99925
2017-10-19T10:55:19.066Z,99930
2017-10-19T10:56:19.092Z,99925
2017-10-19T10:57:19.114Z,99932
2017-10-19T10:58:18.309Z,99926
2017-10-19T10:59:19.240Z,99923
2017-10-19T11:00:18.577Z,99923
2017-10-19T11:01:18.947Z,99920
2017-10-19T11:02:19.099Z,99914
2017-10-19T11:03:19.129Z,99919
2017-10-19T11:04:19.996Z,99911
2017-10-19T11:05:19.828Z,99915
2017-10-19T11:06:19.451Z,99907
2017-10-19T11:07:19.494Z,99908
2017-10-19T11:08:19.659Z,99905
2017-10-19T11:09:19.450Z,99906
2017-10-19T11:10:19.962Z,99905
2017-10-19T11:11:19.442Z,99906
2017-10-19T11:12:19.633Z,99908
2017-10-19T11:13:19.877Z,99903
2017-10-19T11:14:20.347Z,99911
2017-10-19T11:15:20.282Z,99906
2017-10-19T11:16:20.244Z,99907
2017-10-19T11:17:20.239Z,99911
2017-10-19T11:18:20.895Z,99900
2017-10-19T11:19:19.794Z,99899
2017-10-19T11:20:20.444Z,99894
2017-10-19T11:21:18.801Z,99891
2017-10-19T11:22:18.955Z,99900
2017-10-19T11:23:18.963Z,99896
2017-10-19T11:24:19.028Z,99893
2017-10-19T11:25:19.108Z,99890
2017-10-19T11:26:19.129Z,99885
2017-10-19T11:27:19.238Z,99888
2017-10-19T11:28:19.029Z,99885
2017-10-19T11:29:19.139Z,99892
2017-10-19T11:30:19.161Z,99888
2017-10-19T11:31:19.322Z,99884
2017-10-19T11:32:19.205Z,99884
2017-10-19T11:33:19.315Z,99883
2017-10-19T11:34:19.324Z,99882
2017-10-19T11:35:19.373Z,99880
2017-10-19T11:36:19.463Z,99878
2017-10-19T11:37:19.534Z,99879
2017-10-19T11:38:19.631Z,99872
2017-10-19T11:39:19.650Z,99874
2017-10-19T11:40:19.662Z,99868
2017-10-19T11:41:19.778Z,99869
2017-10-19T11:42:19.840Z,99867
2017-10-19T11:43:19.859Z,99870
2017-10-19T11:44:19.894Z,99865
2017-10-19T11:45:19.854Z,99864
2017-10-19T11:46:19.916Z,99872
2017-10-19T11:47:20.029Z,99863
2017-10-19T11:48:20.116Z,99849
2017-10-19T11:49:20.101Z,99864
2017-10-19T11:50:20.130Z,99861
2017-10-19T11:51:20.186Z,99861
2017-10-19T11:52:20.251Z,99861
2017-10-19T11:53:20.350Z,99856
2017-10-19T11:54:20.370Z,99856
2017-10-19T11:55:20.395Z,99858
2017-10-19T11:56:20.468Z,99860
2017-10-19T11:57:20.486Z,99855
2017-10-19T11:58:20.483Z,99855
2017-10-19T11:59:20.544Z,99854
2017-10-19T12:00:20.608Z,99857
2017-10-19T12:01:20.653Z,99852
2017-10-19T12:02:20.703Z,99853
2017-10-19T12:03:20.731Z,99850
2017-10-19T12:04:20.819Z,99855
2017-10-19T12:05:20.918Z,99850
2017-10-19T12:06:20.894Z,99845
2017-10-19T12:07:21.037Z,99837
2017-10-19T12:08:20.944Z,99837
2017-10-19T12:09:21.193Z,99839
2017-10-19T12:10:21.185Z,99839
2017-10-19T12:11:21.178Z,99844
2017-10-19T12:12:21.270Z,99843
2017-10-19T12:13:21.360Z,99844
2017-10-19T12:14:21.540Z,99848
2017-10-19T12:15:21.395Z,99846
2017-10-19T12:16:21.613Z,99845
2017-10-19T12:17:21.714Z,99845
2017-10-19T12:18:21.548Z,99846
2017-10-19T12:19:21.619Z,99841
2017-10-19T12:20:21.650Z,99851
2017-10-19T12:21:21.745Z,99844
2017-10-19T12:22:21.856Z,99841
2017-10-19T12:23:21.823Z,99843
2017-10-19T12:24:21.809Z,99843
2017-10-19T12:25:21.934Z,99846
2017-10-19T12:26:21.996Z,99837
2017-10-19T12:27:22.079Z,99829
2017-10-19T12:30:39.358Z,99825
2017-10-19T12:31:39.041Z,99822
2017-10-19T12:32:39.167Z,99828
2017-10-19T12:39:29.320Z,99812
2017-10-19T12:40:28.524Z,99809
2017-10-19T12:41:28.628Z,99810
2017-10-19T12:42:28.720Z,99803
2017-10-19T12:43:28.611Z,99806
2017-10-19T12:44:28.683Z,99803
2017-10-19T12:45:28.911Z,99804
2017-10-19T12:46:28.598Z,99801
2017-10-19T12:47:28.691Z,99801
2017-10-19T12:48:28.744Z,99804
2017-10-19T12:49:28.815Z,99800
2017-10-19T12:50:28.858Z,99800
2017-10-19T12:51:28.999Z,99799
2017-10-19T12:52:29.008Z,99802
2017-10-19T12:53:29.053Z,99790
2017-10-19T12:54:29.124Z,99789
2017-10-19T12:55:29.607Z,99795